TimePDT,TemperatureF,Dew PointF,Humidity,Sea Level PressureIn,VisibilityMPH,Wind Direction,Wind SpeedMPH,Gust SpeedMPH,PrecipitationIn,Events,Conditions,WindDirDegrees,DateUTC
12:55 AM,62.8,57.2,82,29.93,10.0,Calm,Calm,-,N/A,,Clear,0,2012-10-15 07:55:00
1:55 AM,60.8,57.9,90,29.93,10.0,Calm,Calm,-,N/A,,Clear,0,2012-10-15 08:55:00
2:55 AM,59.9,57.2,91,29.92,10.0,SSE,3.5,-,N/A,,Clear,150,2012-10-15 09:55:00
3:55 AM,59.4,57.0,92,29.91,10.0,Calm,Calm,-,N/A,,Clear,0,2012-10-15 10:55:00
4:51 AM,59.0,57.2,94,29.90,2.5,NE,3.5,-,N/A,,Clear,50,2012-10-15 11:51:00
5:55 AM,59.0,55.9,90,29.91,10.0,Calm,Calm,-,N/A,,Clear,0,2012-10-15 12:55:00
6:55 AM,56.8,55.4,95,29.91,10.0,WNW,3.5,-,N/A,,Clear,300,2012-10-15 13:55:00
7:55 AM,60.4,55.6,84,29.92,10.0,Calm,Calm,-,N/A,,Clear,0,2012-10-15 14:55:00
8:55 AM,71.2,53.8,54,29.94,10.0,North,3.5,-,N/A,,Partly Cloudy,360,2012-10-15 15:55:00
9:55 AM,76.8,52.3,42,29.94,10.0,Variable,3.5,-,N/A,,Partly Cloudy,0,2012-10-15 16:55:00
10:55 AM,83.1,50.0,32,29.92,10.0,South,4.6,-,N/A,,Partly Cloudy,170,2012-10-15 17:55:00
11:55 AM,83.7,54.5,37,29.91,10.0,SSW,9.2,-,N/A,,Scattered Clouds,210,2012-10-15 18:55:00
12:55 PM,82.9,53.1,36,29.89,10.0,South,9.2,-,N/A,,Scattered Clouds,190,2012-10-15 19:55:00
1:55 PM,82.2,54.7,39,29.87,10.0,South,11.5,-,N/A,,Partly Cloudy,190,2012-10-15 20:55:00
2:55 PM,85.5,50.4,30,29.86,10.0,SW,11.5,-,N/A,,Partly Cloudy,220,2012-10-15 21:55:00
3:55 PM,83.3,52.0,34,29.85,10.0,SSW,9.2,-,N/A,,Clear,210,2012-10-15 22:55:00
4:55 PM,82.8,55.0,38,29.84,10.0,South,5.8,-,N/A,,Clear,180,2012-10-15 23:55:00
5:55 PM,79.0,58.5,49,29.83,10.0,Calm,Calm,-,N/A,,Clear,0,2012-10-16 00:55:00
6:55 PM,75.4,56.7,52,29.85,10.0,NW,3.5,-,N/A,,Clear,310,2012-10-16 01:55:00
7:55 PM,72.7,52.9,50,29.86,10.0,Calm,Calm,-,N/A,,Clear,0,2012-10-16 02:55:00
8:55 PM,68.7,56.1,64,29.87,10.0,Calm,Calm,-,N/A,,Clear,0,2012-10-16 03:55:00
9:55 PM,65.5,56.3,72,29.88,10.0,Calm,Calm,-,N/A,,Clear,0,2012-10-16 04:55:00
10:55 PM,64.4,58.1,80,29.88,10.0,Calm,Calm,-,N/A,,Clear,0,2012-10-16 05:55:00
11:55 PM,64.4,62.8,94,29.88,10.0,SE,3.5,-,N/A,,Clear,140,2012-10-16 06:55:00